Time;durP1;ratioP1;P1;durP2;ratioP2;P2;SDS_P1;SDS_P2;PMS_P1;PMS_P2;Temp;Humidity;BMP_temperature;BMP_pressure;BME280_temperature;BME280_humidity;BME280_pressure;Samples;Min_cycle;Max_cycle;Signal;HPM_P1;HPM_P2
2021/04/24 00:01:20;;;;;;;18.65;10.15;;;;;;;;;;5093012;28;20024;-65
2021/04/24 00:03:46;;;;;;;20.58;11.35;;;;;;;;;;5092813;28;20077;-66
2021/04/24 00:06:13;;;;;;;22.77;11.48;;;;;;;;;;5092843;28;20042;-65
2021/04/24 00:08:39;;;;;;;24.15;12.27;;;;;;;;;;5092171;28;20498;-66
2021/04/24 00:11:05;;;;;;;22.92;12.38;;;;;;;;;;5100178;28;20038;-66
2021/04/24 00:13:31;;;;;;;20.67;10.32;;;;;;;;;;5092676;28;20027;-67
2021/04/24 00:15:58;;;;;;;21.25;9.90;;;;;;;;;;5108213;28;20026;-66
2021/04/24 00:18:24;;;;;;;19.27;10.88;;;;;;;;;;5092453;28;20052;-66
2021/04/24 00:20:50;;;;;;;18.23;10.00;;;;;;;;;;5092270;28;20435;-66
2021/04/24 00:23:17;;;;;;;24.20;12.13;;;;;;;;;;5092635;28;20047;-66
2021/04/24 00:25:43;;;;;;;23.20;14.07;;;;;;;;;;5107600;28;20023;-66
2021/04/24 00:28:10;;;;;;;24.98;15.05;;;;;;;;;;5093898;28;20428;-65
2021/04/24 00:30:37;;;;;;;24.90;12.18;;;;;;;;;;5092380;28;20058;-65
2021/04/24 00:33:03;;;;;;;20.95;11.98;;;;;;;;;;5092525;28;20539;-65
2021/04/24 00:35:29;;;;;;;20.58;11.73;;;;;;;;;;5093337;28;20371;-65
2021/04/24 00:37:56;;;;;;;17.15;10.73;;;;;;;;;;5092342;28;20027;-66
2021/04/24 00:40:22;;;;;;;22.48;10.50;;;;;;;;;;5107898;28;20020;-67
2021/04/24 00:42:48;;;;;;;18.20;10.32;;;;;;;;;;5092294;28;20402;-66
2021/04/24 00:45:15;;;;;;;20.10;10.60;;;;;;;;;;5101006;28;20110;-65
2021/04/24 00:47:41;;;;;;;23.25;11.10;;;;;;;;;;5092243;28;20065;-65
2021/04/24 00:50:09;;;;;;;16.67;10.40;;;;;;;;;;5108586;28;20111;-65
2021/04/24 00:52:35;;;;;;;21.25;10.43;;;;;;;;;;5095961;28;20612;-65
2021/04/24 00:55:01;;;;;;;23.83;10.68;;;;;;;;;;5104828;28;20386;-65
2021/04/24 00:57:28;;;;;;;18.95;10.15;;;;;;;;;;5096732;28;20027;-65
2021/04/24 00:59:55;;;;;;;18.15;10.48;;;;;;;;;;5111068;28;20028;-64
2021/04/24 01:02:21;;;;;;;17.60;11.70;;;;;;;;;;5098194;28;20402;-66
2021/04/24 01:04:47;;;;;;;18.10;11.60;;;;;;;;;;5095684;28;20374;-65
2021/04/24 01:07:13;;;;;;;22.90;11.52;;;;;;;;;;5095979;28;20031;-64
2021/04/24 01:09:39;;;;;;;21.23;11.20;;;;;;;;;;5109785;28;20044;-65
2021/04/24 01:12:05;;;;;;;14.88;11.00;;;;;;;;;;5097567;28;20032;-65
2021/04/24 01:14:31;;;;;;;17.67;11.05;;;;;;;;;;5099614;28;20020;-67
2021/04/24 01:16:57;;;;;;;22.58;10.85;;;;;;;;;;5114391;28;20027;-64
2021/04/24 01:19:25;;;;;;;16.85;10.43;;;;;;;;;;5103550;28;20020;-66
2021/04/24 01:21:52;;;;;;;20.85;10.32;;;;;;;;;;5099553;28;20032;-65
2021/04/24 01:24:19;;;;;;;20.17;11.35;;;;;;;;;;5112057;28;20032;-64
2021/04/24 01:26:46;;;;;;;17.88;10.55;;;;;;;;;;5095614;28;20363;-66
2021/04/24 01:29:12;;;;;;;20.80;10.32;;;;;;;;;;5105981;28;20020;-66
2021/04/24 01:31:38;;;;;;;17.08;9.45;;;;;;;;;;5105681;28;20077;-65
2021/04/24 01:34:05;;;;;;;15.70;10.20;;;;;;;;;;5096633;28;20039;-64
2021/04/24 01:36:32;;;;;;;15.77;9.20;;;;;;;;;;5107872;28;20074;-66
2021/04/24 01:38:58;;;;;;;17.67;9.27;;;;;;;;;;5103848;28;20026;-65
2021/04/24 01:41:24;;;;;;;18.77;9.90;;;;;;;;;;5103104;28;20525;-66
2021/04/24 01:43:54;;;;;;;15.60;9.98;;;;;;;;;;5094396;28;20080;-65
2021/04/24 01:46:20;;;;;;;16.83;10.20;;;;;;;;;;5109725;28;20040;-65
2021/04/24 01:48:47;;;;;;;20.50;10.48;;;;;;;;;;5100414;28;20103;-65
2021/04/24 01:51:13;;;;;;;16.83;9.40;;;;;;;;;;5110746;28;20024;-66
2021/04/24 01:53:39;;;;;;;21.13;10.57;;;;;;;;;;5094882;28;20498;-65
2021/04/24 01:56:06;;;;;;;24.23;12.48;;;;;;;;;;5111245;28;20389;-67
2021/04/24 01:58:33;;;;;;;27.95;14.18;;;;;;;;;;5100171;28;20030;-66
2021/04/24 02:01:04;;;;;;;25.50;13.90;;;;;;;;;;5113287;28;20557;-66
2021/04/24 02:03:30;;;;;;;28.67;16.02;;;;;;;;;;5095141;28;20051;-66
2021/04/24 02:05:56;;;;;;;29.67;14.25;;;;;;;;;;5094606;28;20038;-65
2021/04/24 02:08:31;;;;;;;27.70;12.88;;;;;;;;;;5113999;28;20047;-65
2021/04/24 02:10:58;;;;;;;16.60;11.18;;;;;;;;;;5114241;28;20049;-65
2021/04/24 02:13:27;;;;;;;18.42;11.85;;;;;;;;;;5113598;28;20027;-66
2021/04/24 02:15:53;;;;;;;16.60;10.55;;;;;;;;;;5097999;28;20024;-63
2021/04/24 02:18:19;;;;;;;15.30;10.93;;;;;;;;;;5095058;28;20027;-66
2021/04/24 02:20:46;;;;;;;18.55;11.10;;;;;;;;;;5101057;28;20031;-66
2021/04/24 02:23:12;;;;;;;19.25;10.23;;;;;;;;;;5112692;28;20023;-66
2021/04/24 02:25:39;;;;;;;20.77;12.05;;;;;;;;;;5113853;28;20028;-65
2021/04/24 02:28:05;;;;;;;26.33;13.43;;;;;;;;;;5108957;28;20023;-67
2021/04/24 02:30:31;;;;;;;23.52;11.85;;;;;;;;;;5098721;28;20055;-66
2021/04/24 02:32:57;;;;;;;20.15;11.73;;;;;;;;;;5108293;28;20015;-65
2021/04/24 02:35:44;;;;;;;23.95;10.77;;;;;;;;;;5101659;28;20486;-66
2021/04/24 02:38:11;;;;;;;22.30;12.23;;;;;;;;;;5108105;28;20044;-69
2021/04/24 02:40:37;;;;;;;29.85;12.52;;;;;;;;;;5107925;28;20099;-66
2021/04/24 02:43:03;;;;;;;20.25;10.25;;;;;;;;;;5102041;28;20099;-66
2021/04/24 02:45:29;;;;;;;20.10;10.25;;;;;;;;;;5112601;28;20081;-65
2021/04/24 02:47:55;;;;;;;25.40;10.68;;;;;;;;;;5106092;28;20039;-67
2021/04/24 02:50:22;;;;;;;17.65;10.80;;;;;;;;;;5098084;28;20501;-66
2021/04/24 02:52:48;;;;;;;18.13;11.13;;;;;;;;;;5102874;28;20052;-65
2021/04/24 02:55:14;;;;;;;18.35;10.55;;;;;;;;;;5107923;28;20028;-66
2021/04/24 02:57:41;;;;;;;20.63;11.38;;;;;;;;;;5111623;28;20390;-65
2021/04/24 03:00:08;;;;;;;21.35;10.95;;;;;;;;;;5111045;28;20024;-66
2021/04/24 03:02:34;;;;;;;19.33;10.77;;;;;;;;;;5107211;28;20068;-65
2021/04/24 03:05:00;;;;;;;17.48;10.98;;;;;;;;;;5104449;28;20032;-65
2021/04/24 03:07:26;;;;;;;15.95;11.02;;;;;;;;;;5093695;28;20035;-65
2021/04/24 03:09:52;;;;;;;19.67;10.77;;;;;;;;;;5108911;28;20164;-64
2021/04/24 03:12:19;;;;;;;20.23;11.82;;;;;;;;;;5093790;28;20031;-64
2021/04/24 03:14:45;;;;;;;19.83;10.32;;;;;;;;;;5099267;28;20392;-65
2021/04/24 03:17:11;;;;;;;19.50;11.77;;;;;;;;;;5101626;28;20020;-64
2021/04/24 03:19:37;;;;;;;16.48;9.85;;;;;;;;;;5107124;28;20020;-65
2021/04/24 03:22:03;;;;;;;19.88;11.23;;;;;;;;;;5095602;28;20082;-65
2021/04/24 03:24:29;;;;;;;19.00;10.82;;;;;;;;;;5097344;28;20019;-65
2021/04/24 03:26:55;;;;;;;20.17;10.60;;;;;;;;;;5112634;28;20039;-65
2021/04/24 03:29:21;;;;;;;22.42;9.85;;;;;;;;;;5112651;28;20038;-65
2021/04/24 03:31:47;;;;;;;14.82;10.27;;;;;;;;;;5097008;28;20487;-65
2021/04/24 03:34:13;;;;;;;18.35;10.23;;;;;;;;;;5093044;28;20036;-65
2021/04/24 03:36:39;;;;;;;20.98;10.98;;;;;;;;;;5098548;28;20023;-65
2021/04/24 03:39:05;;;;;;;17.17;11.93;;;;;;;;;;5112143;28;20024;-66
2021/04/24 03:41:32;;;;;;;19.63;10.90;;;;;;;;;;5099657;28;20382;-65
2021/04/24 03:43:58;;;;;;;24.45;10.98;;;;;;;;;;5075071;28;20478;-66
2021/04/24 03:46:24;;;;;;;15.38;9.30;;;;;;;;;;5110078;28;20031;-66
2021/04/24 03:48:50;;;;;;;22.33;11.38;;;;;;;;;;5094484;28;20401;-68
2021/04/24 03:51:16;;;;;;;35.35;10.98;;;;;;;;;;5110874;28;20494;-65
2021/04/24 03:53:42;;;;;;;21.00;10.95;;;;;;;;;;5092631;28;20028;-66
2021/04/24 03:56:08;;;;;;;19.85;10.07;;;;;;;;;;5095278;28;20020;-64
2021/04/24 03:58:34;;;;;;;18.70;11.23;;;;;;;;;;5093001;28;20016;-65
2021/04/24 04:01:00;;;;;;;19.13;11.30;;;;;;;;;;5093183;28;20028;-65
2021/04/24 04:03:26;;;;;;;17.05;9.70;;;;;;;;;;5097843;28;20355;-65
2021/04/24 04:05:52;;;;;;;18.13;11.25;;;;;;;;;;5096480;28;20035;-64
2021/04/24 04:08:18;;;;;;;18.33;10.65;;;;;;;;;;5095310;28;20020;-64
2021/04/24 04:10:45;;;;;;;17.98;11.38;;;;;;;;;;5106221;28;20024;-65
2021/04/24 04:13:12;;;;;;;17.55;9.13;;;;;;;;;;5092701;28;20027;-66
2021/04/24 04:15:39;;;;;;;16.98;9.73;;;;;;;;;;5102467;28;20016;-66
2021/04/24 04:18:15;;;;;;;21.08;10.55;;;;;;;;;;5093522;28;20043;-65
2021/04/24 04:20:45;;;;;;;18.70;10.80;;;;;;;;;;5106164;28;20099;-65
2021/04/24 04:23:12;;;;;;;18.60;10.40;;;;;;;;;;5092387;28;20016;-65
2021/04/24 04:25:38;;;;;;;20.48;10.15;;;;;;;;;;5104774;28;20023;-67
2021/04/24 04:28:05;;;;;;;11.95;9.00;;;;;;;;;;5097390;28;20044;-65
2021/04/24 04:30:31;;;;;;;15.95;10.00;;;;;;;;;;5111772;28;20498;-66
2021/04/24 04:32:58;;;;;;;19.50;11.20;;;;;;;;;;5096432;28;20032;-65
2021/04/24 04:35:24;;;;;;;16.98;10.48;;;;;;;;;;5108339;28;20024;-65
2021/04/24 04:37:50;;;;;;;16.05;9.27;;;;;;;;;;5096485;28;20518;-65
2021/04/24 04:40:16;;;;;;;15.23;9.52;;;;;;;;;;5099779;28;20031;-66
2021/04/24 04:42:43;;;;;;;19.02;10.80;;;;;;;;;;5109627;28;20020;-65
2021/04/24 04:45:09;;;;;;;23.05;10.15;;;;;;;;;;5103338;28;20107;-65
2021/04/24 04:47:35;;;;;;;16.13;9.85;;;;;;;;;;5096241;28;20054;-65
2021/04/24 04:50:03;;;;;;;21.02;10.27;;;;;;;;;;5097417;28;20047;-66
2021/04/24 04:52:29;;;;;;;18.75;9.50;;;;;;;;;;5100179;28;20382;-64
2021/04/24 04:54:55;;;;;;;18.33;10.18;;;;;;;;;;5107928;28;20028;-64
2021/04/24 04:57:21;;;;;;;18.70;9.32;;;;;;;;;;5095968;28;20034;-66
2021/04/24 04:59:47;;;;;;;17.77;10.27;;;;;;;;;;5111216;28;20027;-66
2021/04/24 05:02:13;;;;;;;21.13;10.27;;;;;;;;;;5114231;28;20092;-66
2021/04/24 05:04:39;;;;;;;19.48;11.35;;;;;;;;;;5109789;28;20367;-66
2021/04/24 05:07:05;;;;;;;20.83;10.85;;;;;;;;;;5095976;28;20482;-66
2021/04/24 05:09:31;;;;;;;15.80;10.45;;;;;;;;;;5095655;28;20097;-65
2021/04/24 05:11:58;;;;;;;19.52;10.05;;;;;;;;;;5096419;28;20035;-66
2021/04/24 05:14:24;;;;;;;18.00;9.82;;;;;;;;;;5111615;28;20020;-69
2021/04/24 05:16:50;;;;;;;17.58;10.68;;;;;;;;;;5098784;28;20016;-66
2021/04/24 05:19:16;;;;;;;19.40;10.00;;;;;;;;;;5107286;28;20034;-66
2021/04/24 05:21:42;;;;;;;17.23;9.40;;;;;;;;;;5102662;28;20649;-65
2021/04/24 05:24:08;;;;;;;15.15;9.48;;;;;;;;;;5112018;28;20041;-66
2021/04/24 05:26:35;;;;;;;16.40;9.48;;;;;;;;;;5095645;28;20103;-64
2021/04/24 05:29:01;;;;;;;13.27;9.10;;;;;;;;;;5104133;28;20034;-65
2021/04/24 05:31:27;;;;;;;17.85;10.10;;;;;;;;;;5102654;28;20541;-66
2021/04/24 05:33:54;;;;;;;16.30;9.70;;;;;;;;;;5111295;28;20104;-64
2021/04/24 05:36:21;;;;;;;17.00;9.18;;;;;;;;;;5094697;28;20497;-65
2021/04/24 05:38:50;;;;;;;14.50;8.80;;;;;;;;;;5101998;28;20047;-65
2021/04/24 05:41:21;;;;;;;16.25;9.85;;;;;;;;;;5110890;28;20024;-64
2021/04/24 05:43:47;;;;;;;18.80;10.85;;;;;;;;;;5114923;28;20023;-65
2021/04/24 05:46:14;;;;;;;16.98;9.23;;;;;;;;;;5101658;28;20023;-67
2021/04/24 05:48:40;;;;;;;16.95;9.75;;;;;;;;;;5108884;28;20028;-65
2021/04/24 05:51:06;;;;;;;18.73;9.45;;;;;;;;;;5094618;28;20031;-66
2021/04/24 05:53:32;;;;;;;14.30;9.05;;;;;;;;;;5095011;28;20446;-66
2021/04/24 05:55:58;;;;;;;14.07;8.45;;;;;;;;;;5096754;28;20020;-64
2021/04/24 05:58:24;;;;;;;16.70;8.65;;;;;;;;;;5098415;28;20099;-65
2021/04/24 06:00:50;;;;;;;19.23;9.85;;;;;;;;;;5107483;28;20016;-65
2021/04/24 06:03:16;;;;;;;13.63;8.65;;;;;;;;;;5094822;28;20040;-66
2021/04/24 06:05:42;;;;;;;12.45;7.95;;;;;;;;;;5108215;28;20015;-65
2021/04/24 06:08:09;;;;;;;17.27;9.23;;;;;;;;;;5109278;28;20021;-64
2021/04/24 06:10:35;;;;;;;16.77;8.38;;;;;;;;;;5108911;28;20047;-67
2021/04/24 06:13:01;;;;;;;13.43;8.48;;;;;;;;;;5094698;28;20390;-67
2021/04/24 06:15:27;;;;;;;16.77;7.72;;;;;;;;;;5107018;28;20023;-66
2021/04/24 06:17:53;;;;;;;17.35;7.97;;;;;;;;;;5112579;28;20028;-66
2021/04/24 06:20:20;;;;;;;12.38;7.03;;;;;;;;;;5108040;28;20095;-66
2021/04/24 06:22:46;;;;;;;12.25;6.57;;;;;;;;;;5104304;28;20043;-66
2021/04/24 06:25:14;;;;;;;13.65;7.20;;;;;;;;;;5104217;28;20095;-64
2021/04/24 06:27:40;;;;;;;13.25;7.63;;;;;;;;;;5107922;28;20036;-65
2021/04/24 06:30:08;;;;;;;14.70;7.90;;;;;;;;;;5112885;28;20024;-64
2021/04/24 06:32:35;;;;;;;16.25;8.88;;;;;;;;;;5104551;28;20082;-64
2021/04/24 06:35:01;;;;;;;18.75;8.07;;;;;;;;;;5098972;28;20020;-65
2021/04/24 06:37:27;;;;;;;10.73;7.68;;;;;;;;;;5095739;28;20498;-65
2021/04/24 06:39:53;;;;;;;14.10;7.25;;;;;;;;;;5093012;28;20073;-65
2021/04/24 06:42:19;;;;;;;9.70;6.95;;;;;;;;;;5104028;28;20482;-66
2021/04/24 06:44:45;;;;;;;14.20;7.38;;;;;;;;;;5113998;28;20088;-66
2021/04/24 06:47:12;;;;;;;12.68;6.88;;;;;;;;;;5107195;28;20024;-66
2021/04/24 06:49:38;;;;;;;14.50;7.43;;;;;;;;;;5107029;28;20467;-66
2021/04/24 06:52:05;;;;;;;11.90;7.55;;;;;;;;;;5093759;28;20020;-66
2021/04/24 06:54:31;;;;;;;10.02;6.80;;;;;;;;;;5097662;28;20537;-65
2021/04/24 06:56:57;;;;;;;13.80;8.02;;;;;;;;;;5103760;28;20028;-65
2021/04/24 06:59:23;;;;;;;11.48;7.75;;;;;;;;;;5095650;28;20066;-65
2021/04/24 07:01:49;;;;;;;13.98;7.25;;;;;;;;;;5095802;28;20042;-66
2021/04/24 07:04:16;;;;;;;19.85;7.38;;;;;;;;;;5097127;28;20063;-65
2021/04/24 07:06:42;;;;;;;10.10;6.70;;;;;;;;;;5100045;28;20106;-66
2021/04/24 07:09:08;;;;;;;10.95;6.72;;;;;;;;;;5101025;28;20216;-66
2021/04/24 07:11:34;;;;;;;13.75;7.03;;;;;;;;;;5099681;28;20058;-64
2021/04/24 07:14:00;;;;;;;12.48;6.82;;;;;;;;;;5103928;28;20111;-66
2021/04/24 07:16:26;;;;;;;10.18;6.13;;;;;;;;;;5100580;28;20069;-66
2021/04/24 07:18:52;;;;;;;12.02;7.07;;;;;;;;;;5097843;28;20020;-67
2021/04/24 07:21:18;;;;;;;14.02;6.47;;;;;;;;;;5101329;28;20092;-65
2021/04/24 07:23:44;;;;;;;11.63;6.88;;;;;;;;;;5102348;28;20032;-66
2021/04/24 07:26:10;;;;;;;12.20;6.85;;;;;;;;;;5101862;28;20028;-66
2021/04/24 07:28:37;;;;;;;11.57;6.28;;;;;;;;;;5102195;28;20367;-65
2021/04/24 07:31:03;;;;;;;11.73;6.53;;;;;;;;;;5100244;28;20030;-65
2021/04/24 07:33:29;;;;;;;11.50;6.20;;;;;;;;;;5094903;28;20020;-66
2021/04/24 07:35:55;;;;;;;11.00;6.03;;;;;;;;;;5094814;28;20085;-65
2021/04/24 07:38:22;;;;;;;10.35;6.05;;;;;;;;;;5093118;28;20126;-65
2021/04/24 07:40:48;;;;;;;11.45;7.00;;;;;;;;;;5093721;28;20028;-66
2021/04/24 07:43:14;;;;;;;11.45;5.80;;;;;;;;;;5098431;28;20398;-65
2021/04/24 07:45:41;;;;;;;11.02;5.35;;;;;;;;;;5100495;28;20023;-65
2021/04/24 07:48:07;;;;;;;8.75;5.75;;;;;;;;;;5110144;28;20046;-65
2021/04/24 07:50:34;;;;;;;12.98;5.90;;;;;;;;;;5109607;28;20032;-66
2021/04/24 07:53:00;;;;;;;10.88;6.68;;;;;;;;;;5105041;28;20122;-66
2021/04/24 07:55:29;;;;;;;11.73;6.35;;;;;;;;;;5097171;28;20031;-66
2021/04/24 07:57:55;;;;;;;10.65;5.95;;;;;;;;;;5094807;28;20372;-66
2021/04/24 08:00:22;;;;;;;13.15;6.40;;;;;;;;;;5105708;28;20447;-64
2021/04/24 08:02:48;;;;;;;9.63;5.55;;;;;;;;;;5109997;28;20024;-67
2021/04/24 08:05:16;;;;;;;12.20;6.43;;;;;;;;;;5096763;28;20024;-66
2021/04/24 08:07:43;;;;;;;13.20;5.85;;;;;;;;;;5094425;28;20482;-65
2021/04/24 08:10:09;;;;;;;7.57;4.50;;;;;;;;;;5103743;28;20169;-65
2021/04/24 08:12:35;;;;;;;9.63;4.70;;;;;;;;;;5094177;28;20077;-66
2021/04/24 08:15:01;;;;;;;27.85;7.22;;;;;;;;;;5094913;28;20493;-65
2021/04/24 08:17:28;;;;;;;8.23;4.85;;;;;;;;;;5096818;28;20028;-64
2021/04/24 08:19:54;;;;;;;11.15;5.45;;;;;;;;;;5107381;28;20076;-64
2021/04/24 08:22:20;;;;;;;25.92;5.82;;;;;;;;;;5094788;28;20055;-63
2021/04/24 08:24:46;;;;;;;8.38;4.72;;;;;;;;;;5106491;28;20024;-64
2021/04/24 08:27:12;;;;;;;12.48;5.38;;;;;;;;;;5093084;28;20024;-65
2021/04/24 08:29:38;;;;;;;8.20;4.35;;;;;;;;;;5106668;28;20397;-65
2021/04/24 08:32:05;;;;;;;10.25;5.63;;;;;;;;;;5105213;28;20514;-64
2021/04/24 08:34:31;;;;;;;8.50;4.00;;;;;;;;;;5093119;28;20028;-65
2021/04/24 08:36:57;;;;;;;7.72;4.53;;;;;;;;;;5093801;28;20048;-64
2021/04/24 08:39:23;;;;;;;9.50;4.80;;;;;;;;;;5099748;28;20023;-63
2021/04/24 08:41:49;;;;;;;9.60;4.60;;;;;;;;;;5101339;28;20081;-66
2021/04/24 08:44:17;;;;;;;8.07;4.53;;;;;;;;;;5092271;28;20028;-66
2021/04/24 08:46:46;;;;;;;9.35;4.70;;;;;;;;;;5100767;28;20478;-65
2021/04/24 08:49:15;;;;;;;7.63;4.40;;;;;;;;;;5092943;28;20032;-66
2021/04/24 08:51:41;;;;;;;6.80;4.28;;;;;;;;;;5097864;28;20023;-65
2021/04/24 08:54:07;;;;;;;11.82;5.10;;;;;;;;;;5111394;28;20032;-65
2021/04/24 08:56:33;;;;;;;6.70;4.40;;;;;;;;;;5097897;28;20545;-65
2021/04/24 08:58:59;;;;;;;7.32;4.80;;;;;;;;;;5092007;28;20016;-65
2021/04/24 09:01:26;;;;;;;8.50;5.32;;;;;;;;;;5096933;28;20064;-65
2021/04/24 09:03:52;;;;;;;12.00;5.05;;;;;;;;;;5096008;28;20229;-66
2021/04/24 09:06:22;;;;;;;8.55;5.18;;;;;;;;;;5101628;28;20539;-65
2021/04/24 09:09:24;;;;;;;10.07;5.43;;;;;;;;;;5093150;28;20123;-64
2021/04/24 09:11:51;;;;;;;9.18;5.18;;;;;;;;;;5030107;28;20506;-64
2021/04/24 09:14:20;;;;;;;7.95;5.18;;;;;;;;;;5084546;28;20421;-63
2021/04/24 09:16:49;;;;;;;9.95;5.18;;;;;;;;;;5099118;28;20026;-64
2021/04/24 09:19:25;;;;;;;9.15;4.70;;;;;;;;;;5104615;28;20389;-64
2021/04/24 09:22:10;;;;;;;9.48;5.07;;;;;;;;;;5107611;28;20044;-65
2021/04/24 09:24:36;;;;;;;;;;;;;;;;;;5096345;28;20093;-65
2021/04/24 09:27:02;;;;;;;11.77;5.30;;;;;;;;;;5107812;28;19911;-65
2021/04/24 09:29:28;;;;;;;8.57;5.05;;;;;;;;;;5107333;28;20038;-65
2021/04/24 09:32:14;;;;;;;9.38;6.05;;;;;;;;;;5103148;28;20054;-65
2021/04/24 09:34:40;;;;;;;8.02;6.30;;;;;;;;;;5095364;28;20508;-66
2021/04/24 09:37:13;;;;;;;9.82;5.38;;;;;;;;;;5101435;28;20519;-65
2021/04/24 09:39:46;;;;;;;11.40;6.22;;;;;;;;;;5102332;28;20030;-67
2021/04/24 09:42:31;;;;;;;12.73;5.93;;;;;;;;;;5104648;28;20024;-68
2021/04/24 09:44:57;;;;;;;7.90;6.03;;;;;;;;;;5098845;28;20122;-68
2021/04/24 09:47:26;;;;;;;12.52;7.45;;;;;;;;;;5111955;28;20024;-68
2021/04/24 09:49:52;;;;;;;10.93;6.60;;;;;;;;;;5110009;28;20024;-69
2021/04/24 09:52:22;;;;;;;10.10;5.90;;;;;;;;;;5102453;28;20036;-66
2021/04/24 09:54:48;;;;;;;8.32;6.18;;;;;;;;;;5103272;28;20027;-69
2021/04/24 09:57:21;;;;;;;11.27;7.10;;;;;;;;;;5097583;28;20077;-70
2021/04/24 09:59:53;;;;;;;9.93;6.00;;;;;;;;;;5104548;28;20118;-69
2021/04/24 10:02:32;;;;;;;12.23;6.50;;;;;;;;;;5106664;28;20077;-69
2021/04/24 10:05:24;;;;;;;10.63;6.47;;;;;;;;;;5105508;28;20106;-68
2021/04/24 10:07:59;;;;;;;9.88;6.82;;;;;;;;;;5101698;28;20039;-69
2021/04/24 10:10:26;;;;;;;;;;;;;;;;;;5098351;28;20097;-68
2021/04/24 10:12:55;;;;;;;11.55;6.70;;;;;;;;;;5098808;28;20007;-69
2021/04/24 10:15:53;;;;;;;9.55;6.35;;;;;;;;;;5094637;28;20016;-68
2021/04/24 10:18:19;;;;;;;11.52;6.85;;;;;;;;;;5056756;28;20044;-68
2021/04/24 10:20:46;;;;;;;13.15;7.32;;;;;;;;;;5095531;28;20100;-67
2021/04/24 10:23:13;;;;;;;12.30;7.95;;;;;;;;;;5103348;28;20072;-69
2021/04/24 10:25:43;;;;;;;12.70;7.47;;;;;;;;;;5100135;28;20076;-67
2021/04/24 10:28:09;;;;;;;11.75;7.38;;;;;;;;;;5105170;28;20026;-70
2021/04/24 10:30:35;;;;;;;11.30;7.78;;;;;;;;;;5102369;28;20070;-68
2021/04/24 10:33:03;;;;;;;14.60;8.40;;;;;;;;;;5105819;28;20107;-68
2021/04/24 10:35:31;;;;;;;14.75;8.25;;;;;;;;;;5094087;28;20538;-68
2021/04/24 10:37:58;;;;;;;12.50;8.05;;;;;;;;;;5102155;28;20050;-68
2021/04/24 10:40:24;;;;;;;14.05;7.80;;;;;;;;;;5099813;28;20027;-70
2021/04/24 10:42:51;;;;;;;14.10;9.20;;;;;;;;;;5102881;28;20035;-69
2021/04/24 10:45:27;;;;;;;18.85;9.45;;;;;;;;;;5106202;28;20028;-69
2021/04/24 10:47:55;;;;;;;12.50;8.82;;;;;;;;;;5096321;28;20035;-68
2021/04/24 10:50:41;;;;;;;14.07;9.18;;;;;;;;;;5093665;28;20111;-68
2021/04/24 10:53:18;;;;;;;12.43;9.30;;;;;;;;;;5089561;28;20040;-68
2021/04/24 10:55:44;;;;;;;15.55;8.93;;;;;;;;;;5112037;28;20072;-69
2021/04/24 10:58:15;;;;;;;16.27;9.82;;;;;;;;;;5094732;28;20119;-68
2021/04/24 11:00:41;;;;;;;14.30;9.82;;;;;;;;;;5110266;28;20502;-68
2021/04/24 11:03:07;;;;;;;16.48;10.60;;;;;;;;;;5111574;28;20039;-69
2021/04/24 11:05:36;;;;;;;17.80;10.63;;;;;;;;;;5103548;28;20039;-69
2021/04/24 11:08:14;;;;;;;16.55;10.20;;;;;;;;;;5093748;28;20072;-69
2021/04/24 11:10:43;;;;;;;19.30;10.10;;;;;;;;;;5094694;28;20051;-69
2021/04/24 11:13:10;;;;;;;16.70;10.30;;;;;;;;;;5100580;28;20502;-69
2021/04/24 11:15:38;;;;;;;13.77;9.68;;;;;;;;;;5102674;28;20024;-68
2021/04/24 11:18:07;;;;;;;18.02;9.48;;;;;;;;;;5107541;28;20020;-69
2021/04/24 11:21:11;;;;;;;17.85;10.27;;;;;;;;;;5105005;28;20023;-69
2021/04/24 11:23:40;;;;;;;15.23;9.90;;;;;;;;;;5005086;28;20388;-69
2021/04/24 11:26:07;;;;;;;15.65;10.23;;;;;;;;;;5003151;28;20041;-69
2021/04/24 11:28:35;;;;;;;16.10;10.32;;;;;;;;;;5054999;28;20043;-68
2021/04/24 11:31:05;;;;;;;16.08;9.73;;;;;;;;;;5101785;28;20016;-68
2021/04/24 11:33:48;;;;;;;14.02;9.38;;;;;;;;;;5106954;28;20027;-69
2021/04/24 11:36:15;;;;;;;16.30;9.30;;;;;;;;;;5083380;28;20452;-68
2021/04/24 11:39:07;;;;;;;15.02;9.23;;;;;;;;;;5104643;28;20020;-69
2021/04/24 11:41:35;;;;;;;14.77;8.75;;;;;;;;;;5098149;28;20040;-71
2021/04/24 11:44:21;;;;;;;14.43;9.73;;;;;;;;;;5094706;28;20031;-68
2021/04/24 11:46:54;;;;;;;16.40;9.40;;;;;;;;;;5095545;28;20028;-69
2021/04/24 11:49:22;;;;;;;18.00;8.40;;;;;;;;;;5101587;28;20055;-70
2021/04/24 11:51:49;;;;;;;14.15;9.43;;;;;;;;;;5090669;28;20032;-69
2021/04/24 11:54:22;;;;;;;16.60;9.52;;;;;;;;;;5097457;28;20046;-69
2021/04/24 11:56:49;;;;;;;15.23;8.93;;;;;;;;;;5112171;28;20482;-67
2021/04/24 11:59:22;;;;;;;13.93;8.50;;;;;;;;;;5103841;28;20096;-69
2021/04/24 12:01:48;;;;;;;16.38;10.02;;;;;;;;;;5100979;28;20440;-69
2021/04/24 12:04:30;;;;;;;14.15;8.85;;;;;;;;;;5104932;28;20028;-69
2021/04/24 12:07:05;;;;;;;14.30;7.22;;;;;;;;;;5102223;28;20031;-67
2021/04/24 12:09:44;;;;;;;12.60;7.82;;;;;;;;;;5105483;28;20040;-70
2021/04/24 12:12:10;;;;;;;9.30;6.90;;;;;;;;;;5094835;28;20081;-68
2021/04/24 12:14:36;;;;;;;12.32;6.97;;;;;;;;;;5098799;28;20514;-68
2021/04/24 12:17:07;;;;;;;9.35;6.40;;;;;;;;;;5096203;28;20028;-68
2021/04/24 12:19:36;;;;;;;12.52;6.80;;;;;;;;;;5104208;28;20024;-69
2021/04/24 12:22:04;;;;;;;8.90;6.13;;;;;;;;;;5097873;28;20031;-69
2021/04/24 12:24:30;;;;;;;9.70;6.55;;;;;;;;;;5101510;28;20023;-69
2021/04/24 12:26:56;;;;;;;9.18;6.25;;;;;;;;;;5100663;28;20028;-69
2021/04/24 12:29:41;;;;;;;11.35;6.03;;;;;;;;;;5098322;28;20030;-68
2021/04/24 12:32:14;;;;;;;8.63;5.32;;;;;;;;;;5107933;28;20032;-69
2021/04/24 12:34:40;;;;;;;10.13;5.60;;;;;;;;;;5093479;28;20047;-68
2021/04/24 12:37:09;;;;;;;8.10;5.00;;;;;;;;;;5106065;28;20080;-69
2021/04/24 12:39:38;;;;;;;11.80;6.47;;;;;;;;;;5097480;28;20047;-68
2021/04/24 12:42:05;;;;;;;9.15;5.75;;;;;;;;;;5106881;28;20166;-67
2021/04/24 12:44:32;;;;;;;8.15;5.85;;;;;;;;;;5103277;28;20446;-68
2021/04/24 12:46:59;;;;;;;6.18;4.40;;;;;;;;;;5103532;28;20051;-68
2021/04/24 12:49:26;;;;;;;7.32;5.03;;;;;;;;;;5108202;28;20035;-71
2021/04/24 12:52:03;;;;;;;6.45;4.07;;;;;;;;;;5099296;28;20020;-68
2021/04/24 12:54:29;;;;;;;7.20;4.18;;;;;;;;;;5096532;28;20042;-68
2021/04/24 12:57:11;;;;;;;6.93;4.38;;;;;;;;;;5096709;28;20020;-68
2021/04/24 12:59:38;;;;;;;6.53;4.43;;;;;;;;;;5096650;28;20060;-68
2021/04/24 13:02:04;;;;;;;5.55;4.00;;;;;;;;;;5097655;28;20031;-69
2021/04/24 13:04:31;;;;;;;5.38;3.83;;;;;;;;;;5097130;28;20027;-69
2021/04/24 13:06:58;;;;;;;5.80;4.13;;;;;;;;;;5106824;28;20035;-70
2021/04/24 13:09:37;;;;;;;4.78;3.95;;;;;;;;;;5100977;28;20036;-70
2021/04/24 13:12:13;;;;;;;5.75;4.20;;;;;;;;;;5091096;28;20173;-70
2021/04/24 13:14:43;;;;;;;8.57;4.53;;;;;;;;;;5089661;28;20118;-70
2021/04/24 13:17:11;;;;;;;6.90;4.07;;;;;;;;;;5096646;28;20028;-70
2021/04/24 13:19:51;;;;;;;6.05;4.00;;;;;;;;;;5094936;28;20024;-70
2021/04/24 13:22:32;;;;;;;5.85;3.60;;;;;;;;;;5103390;28;20023;-69
2021/04/24 13:24:58;;;;;;;5.60;3.42;;;;;;;;;;5095845;28;20149;-69
2021/04/24 13:27:25;;;;;;;7.63;3.47;;;;;;;;;;5096417;28;20020;-71
2021/04/24 13:29:51;;;;;;;7.25;3.90;;;;;;;;;;5105543;28;20140;-70
2021/04/24 13:32:18;;;;;;;6.88;3.33;;;;;;;;;;5113549;28;20371;-70
2021/04/24 13:34:49;;;;;;;5.22;3.30;;;;;;;;;;5111236;28;20020;-69
2021/04/24 13:37:27;;;;;;;7.38;3.67;;;;;;;;;;5092938;28;20200;-70
2021/04/24 13:39:59;;;;;;;3.47;3.05;;;;;;;;;;5096643;28;20378;-68
2021/04/24 13:42:39;;;;;;;4.75;2.75;;;;;;;;;;5112006;28;20123;-69
2021/04/24 13:45:14;;;;;;;5.20;2.55;;;;;;;;;;5099844;28;20027;-70
2021/04/24 13:47:41;;;;;;;4.38;2.80;;;;;;;;;;5094583;28;20395;-69
2021/04/24 13:50:08;;;;;;;3.85;2.63;;;;;;;;;;5108293;28;20110;-69
2021/04/24 13:52:35;;;;;;;4.13;2.67;;;;;;;;;;5096884;28;20042;-69
2021/04/24 13:55:01;;;;;;;3.22;2.65;;;;;;;;;;5100152;28;20020;-68
2021/04/24 13:57:27;;;;;;;4.93;3.00;;;;;;;;;;5102465;28;20024;-68
2021/04/24 13:59:53;;;;;;;6.45;2.88;;;;;;;;;;5102410;28;20070;-68
2021/04/24 14:02:19;;;;;;;4.95;2.90;;;;;;;;;;5111179;28;20034;-68
2021/04/24 14:04:45;;;;;;;6.68;2.85;;;;;;;;;;5097939;28;20032;-68
2021/04/24 14:07:11;;;;;;;5.85;2.80;;;;;;;;;;5109172;28;20048;-69
2021/04/24 14:09:38;;;;;;;4.70;3.08;;;;;;;;;;5104823;28;20118;-69
2021/04/24 14:12:04;;;;;;;4.00;2.60;;;;;;;;;;5100056;28;20024;-69
2021/04/24 14:14:30;;;;;;;4.20;2.60;;;;;;;;;;5110823;28;20073;-69
2021/04/24 14:16:57;;;;;;;5.50;2.80;;;;;;;;;;5106665;28;20024;-68
2021/04/24 14:19:24;;;;;;;7.05;2.80;;;;;;;;;;5097579;28;20027;-68
2021/04/24 14:21:53;;;;;;;4.35;2.75;;;;;;;;;;5094558;28;20051;-67
2021/04/24 14:24:20;;;;;;;4.50;2.40;;;;;;;;;;5104378;28;20039;-70
2021/04/24 14:26:47;;;;;;;6.80;2.70;;;;;;;;;;5097350;28;20031;-69
2021/04/24 14:29:13;;;;;;;3.53;2.53;;;;;;;;;;5106425;28;20186;-69
2021/04/24 14:31:39;;;;;;;5.63;3.03;;;;;;;;;;5113353;28;20032;-70
2021/04/24 14:34:05;;;;;;;3.58;2.90;;;;;;;;;;5112044;28;20028;-69